Slavutich-16 — ENYT — position and weather

sailwx.info

Track history (hours):
 
Tides and Currents Weather Stations Pressure Air Temp Water Temp Dewpoint Dewpoint Depression Visibility Wind Speed Wind Dir Waves Ship Positions

Slavutich-16

Last reported at 2014-Aug-15 17:33 UTC. Time now 2014-Aug-20 08:48 UTC.
Position N 46°33' E 032°17'.

Length 108 m; draft 2.4 m.

Type: Cargo ship. MMSI: 272046000.

Date/timePositionNaut miles runAvg speedWind from/ knotsBaromVisibWave heightAir tempDewpointWater temp
2014-Aug-15 17:33N 46°33' E 032°17'8 7.6
2014-Aug-15 16:34N 46°32' E 032°07'8 7.5
2014-Aug-15 15:33N 46°34' E 031°56'10 7.6
2014-Aug-15 14:13N 46°35' E 031°41'39 3.6
2014-Aug-15 03:29N 46°29' E 030°45'0 0.0
2014-Aug-15 02:32N 46°29' E 030°45'0 0.0
2014-Aug-15 01:32N 46°29' E 030°45'0 0.0
2014-Aug-15 00:29N 46°29' E 030°45'0 0.0
2014-Aug-14 23:32N 46°29' E 030°45'0 0.0
2014-Aug-14 22:32N 46°29' E 030°45'0 0.0
2014-Aug-14 21:32N 46°29' E 030°45'0 0.0
2014-Aug-14 20:29N 46°29' E 030°45'0 0.0
2014-Aug-14 19:26N 46°29' E 030°45'0 0.0
2014-Aug-14 18:32N 46°29' E 030°45'0 0.0
2014-Aug-14 17:09N 46°29' E 030°45'2 3.3
2014-Aug-14 16:32N 46°31' E 030°47'  
2014-Aug-08 19:18N 46°33' E 032°26'4 5.5
2014-Aug-08 18:33N 46°33' E 032°20'7 7.3
2014-Aug-08 17:33N 46°32' E 032°10'7 7.4
2014-Aug-08 16:33N 46°33' E 031°59'8 7.9
2014-Aug-08 15:33N 46°35' E 031°48'23 0.6
2014-Aug-07 02:07N 46°35' E 031°15'7 7.1
2014-Aug-07 01:07N 46°35' E 031°26'6 6.6
2014-Aug-07 00:09N 46°35' E 031°35'5 7.3
2014-Aug-06 23:26N 46°36' E 031°43'6 7.3
2014-Aug-06 22:33N 46°35' E 031°52'7 7.1
2014-Aug-06 21:33N 46°33' E 032°02'  
Track history (hours):
 
Tides and Currents Weather Stations Pressure Air Temp Water Temp Dewpoint Dewpoint Depression Visibility Wind Speed Wind Dir Waves Ship Positions

Slavutich-16

Last reported at 2014-Aug-15 17:33 UTC. Time now 2014-Aug-20 08:48 UTC.
Position N 46°33' E 032°17'.

Length 108 m; draft 2.4 m.

Type: Cargo ship. MMSI: 272046000.

Date/timePositionNaut miles runAvg speedWind from/ knotsBaromVisibWave heightAir tempDewpointWater temp
2014-Aug-15 17:33N 46°33' E 032°17'8 7.6
2014-Aug-15 16:34N 46°32' E 032°07'8 7.5
2014-Aug-15 15:33N 46°34' E 031°56'10 7.6
2014-Aug-15 14:13N 46°35' E 031°41'39 3.6
2014-Aug-15 03:29N 46°29' E 030°45'0 0.0
2014-Aug-15 02:32N 46°29' E 030°45'0 0.0
2014-Aug-15 01:32N 46°29' E 030°45'0 0.0
2014-Aug-15 00:29N 46°29' E 030°45'0 0.0
2014-Aug-14 23:32N 46°29' E 030°45'0 0.0
2014-Aug-14 22:32N 46°29' E 030°45'0 0.0
2014-Aug-14 21:32N 46°29' E 030°45'0 0.0
2014-Aug-14 20:29N 46°29' E 030°45'0 0.0
2014-Aug-14 19:26N 46°29' E 030°45'0 0.0
2014-Aug-14 18:32N 46°29' E 030°45'0 0.0
2014-Aug-14 17:09N 46°29' E 030°45'2 3.3
2014-Aug-14 16:32N 46°31' E 030°47'  
2014-Aug-08 19:18N 46°33' E 032°26'4 5.5
2014-Aug-08 18:33N 46°33' E 032°20'7 7.3
2014-Aug-08 17:33N 46°32' E 032°10'7 7.4
2014-Aug-08 16:33N 46°33' E 031°59'8 7.9
2014-Aug-08 15:33N 46°35' E 031°48'23 0.6
2014-Aug-07 02:07N 46°35' E 031°15'7 7.1
2014-Aug-07 01:07N 46°35' E 031°26'6 6.6
2014-Aug-07 00:09N 46°35' E 031°35'5 7.3
2014-Aug-06 23:26N 46°36' E 031°43'6 7.3
2014-Aug-06 22:33N 46°35' E 031°52'7 7.1
2014-Aug-06 21:33N 46°33' E 032°02'  

Dump ship's entire track history